sensor_id;sensor_type;location;lat;lon;timestamp;P1;durP1;ratioP1;P2;durP2;ratioP2
25780;SDS011;13626;48.128;11.628;2022-07-17T00:02:18;5.90;;;3.00;;
25780;SDS011;13626;48.128;11.628;2022-07-17T00:04:46;4.45;;;3.20;;
25780;SDS011;13626;48.128;11.628;2022-07-17T00:07:13;8.10;;;3.30;;
25780;SDS011;13626;48.128;11.628;2022-07-17T00:09:40;5.15;;;3.38;;
25780;SDS011;13626;48.128;11.628;2022-07-17T00:12:08;6.70;;;3.30;;
25780;SDS011;13626;48.128;11.628;2022-07-17T00:14:35;7.20;;;3.78;;
25780;SDS011;13626;48.128;11.628;2022-07-17T00:17:03;6.60;;;3.60;;
25780;SDS011;13626;48.128;11.628;2022-07-17T00:19:31;6.95;;;3.70;;
25780;SDS011;13626;48.128;11.628;2022-07-17T00:21:59;5.95;;;3.10;;
25780;SDS011;13626;48.128;11.628;2022-07-17T00:24:26;4.00;;;3.25;;
25780;SDS011;13626;48.128;11.628;2022-07-17T00:26:53;5.93;;;2.80;;
25780;SDS011;13626;48.128;11.628;2022-07-17T00:29:21;4.35;;;3.35;;
25780;SDS011;13626;48.128;11.628;2022-07-17T00:31:48;6.32;;;3.60;;
25780;SDS011;13626;48.128;11.628;2022-07-17T00:34:15;8.52;;;4.72;;
25780;SDS011;13626;48.128;11.628;2022-07-17T00:36:46;6.43;;;3.47;;
25780;SDS011;13626;48.128;11.628;2022-07-17T00:39:13;6.38;;;3.80;;
25780;SDS011;13626;48.128;11.628;2022-07-17T00:41:42;6.32;;;3.72;;
25780;SDS011;13626;48.128;11.628;2022-07-17T00:44:10;6.05;;;3.60;;
25780;SDS011;13626;48.128;11.628;2022-07-17T00:46:38;5.72;;;3.70;;
25780;SDS011;13626;48.128;11.628;2022-07-17T00:49:06;5.97;;;3.70;;
25780;SDS011;13626;48.128;11.628;2022-07-17T00:51:33;5.65;;;3.55;;
25780;SDS011;13626;48.128;11.628;2022-07-17T00:54:01;3.75;;;3.30;;
25780;SDS011;13626;48.128;11.628;2022-07-17T00:56:34;5.25;;;3.70;;
25780;SDS011;13626;48.128;11.628;2022-07-17T00:59:03;5.32;;;3.05;;
25780;SDS011;13626;48.128;11.628;2022-07-17T01:01:31;5.60;;;3.47;;
25780;SDS011;13626;48.128;11.628;2022-07-17T01:03:59;4.88;;;3.55;;
25780;SDS011;13626;48.128;11.628;2022-07-17T01:06:26;3.95;;;2.85;;
25780;SDS011;13626;48.128;11.628;2022-07-17T01:08:53;4.97;;;3.47;;
25780;SDS011;13626;48.128;11.628;2022-07-17T01:11:20;4.72;;;3.30;;
25780;SDS011;13626;48.128;11.628;2022-07-17T01:13:48;4.03;;;3.33;;
25780;SDS011;13626;48.128;11.628;2022-07-17T01:16:15;6.38;;;3.33;;
25780;SDS011;13626;48.128;11.628;2022-07-17T01:18:43;4.65;;;2.90;;
25780;SDS011;13626;48.128;11.628;2022-07-17T01:21:10;4.40;;;3.10;;
25780;SDS011;13626;48.128;11.628;2022-07-17T01:23:37;3.75;;;3.00;;
25780;SDS011;13626;48.128;11.628;2022-07-17T01:26:04;4.78;;;3.30;;
25780;SDS011;13626;48.128;11.628;2022-07-17T01:28:32;5.50;;;3.10;;
25780;SDS011;13626;48.128;11.628;2022-07-17T01:31:00;4.97;;;3.08;;
25780;SDS011;13626;48.128;11.628;2022-07-17T01:33:29;6.55;;;3.75;;
25780;SDS011;13626;48.128;11.628;2022-07-17T01:35:56;3.60;;;3.10;;
25780;SDS011;13626;48.128;11.628;2022-07-17T01:38:23;5.68;;;3.00;;
25780;SDS011;13626;48.128;11.628;2022-07-17T01:40:51;5.75;;;3.63;;
25780;SDS011;13626;48.128;11.628;2022-07-17T01:43:18;6.25;;;3.53;;
25780;SDS011;13626;48.128;11.628;2022-07-17T01:45:46;5.50;;;2.83;;
25780;SDS011;13626;48.128;11.628;2022-07-17T01:48:22;6.43;;;3.22;;
25780;SDS011;13626;48.128;11.628;2022-07-17T01:50:49;7.45;;;3.78;;
25780;SDS011;13626;48.128;11.628;2022-07-17T01:53:16;5.38;;;3.33;;
25780;SDS011;13626;48.128;11.628;2022-07-17T01:55:43;4.38;;;3.13;;
25780;SDS011;13626;48.128;11.628;2022-07-17T01:58:12;4.45;;;3.33;;
25780;SDS011;13626;48.128;11.628;2022-07-17T02:00:40;4.72;;;3.38;;
25780;SDS011;13626;48.128;11.628;2022-07-17T02:03:07;3.75;;;3.00;;
25780;SDS011;13626;48.128;11.628;2022-07-17T02:05:34;4.45;;;3.25;;
25780;SDS011;13626;48.128;11.628;2022-07-17T02:08:01;4.57;;;3.20;;
25780;SDS011;13626;48.128;11.628;2022-07-17T02:10:29;6.03;;;3.00;;
25780;SDS011;13626;48.128;11.628;2022-07-17T02:12:56;5.70;;;3.25;;
25780;SDS011;13626;48.128;11.628;2022-07-17T02:15:24;4.15;;;3.35;;
25780;SDS011;13626;48.128;11.628;2022-07-17T02:17:51;7.38;;;3.65;;
25780;SDS011;13626;48.128;11.628;2022-07-17T02:20:19;7.45;;;3.45;;
25780;SDS011;13626;48.128;11.628;2022-07-17T02:22:46;3.67;;;3.10;;
25780;SDS011;13626;48.128;11.628;2022-07-17T02:25:14;6.22;;;3.60;;
25780;SDS011;13626;48.128;11.628;2022-07-17T02:27:41;5.18;;;3.45;;
25780;SDS011;13626;48.128;11.628;2022-07-17T02:30:15;3.95;;;3.22;;
25780;SDS011;13626;48.128;11.628;2022-07-17T02:32:43;5.68;;;3.63;;
25780;SDS011;13626;48.128;11.628;2022-07-17T02:35:11;5.93;;;3.42;;
25780;SDS011;13626;48.128;11.628;2022-07-17T02:37:38;4.60;;;3.45;;
25780;SDS011;13626;48.128;11.628;2022-07-17T02:40:08;4.45;;;3.70;;
25780;SDS011;13626;48.128;11.628;2022-07-17T02:42:36;5.45;;;3.47;;
25780;SDS011;13626;48.128;11.628;2022-07-17T02:45:03;7.45;;;3.30;;
25780;SDS011;13626;48.128;11.628;2022-07-17T02:47:33;4.40;;;3.30;;
25780;SDS011;13626;48.128;11.628;2022-07-17T02:50:02;5.75;;;3.40;;
25780;SDS011;13626;48.128;11.628;2022-07-17T02:52:30;3.40;;;3.10;;
25780;SDS011;13626;48.128;11.628;2022-07-17T02:54:57;3.95;;;3.33;;
25780;SDS011;13626;48.128;11.628;2022-07-17T02:57:24;5.10;;;3.50;;
25780;SDS011;13626;48.128;11.628;2022-07-17T02:59:51;4.50;;;3.58;;
25780;SDS011;13626;48.128;11.628;2022-07-17T03:02:19;5.40;;;3.50;;
25780;SDS011;13626;48.128;11.628;2022-07-17T03:04:46;6.18;;;3.58;;
25780;SDS011;13626;48.128;11.628;2022-07-17T03:07:13;4.72;;;3.13;;
25780;SDS011;13626;48.128;11.628;2022-07-17T03:09:41;5.70;;;3.45;;
25780;SDS011;13626;48.128;11.628;2022-07-17T03:12:08;4.68;;;3.20;;
25780;SDS011;13626;48.128;11.628;2022-07-17T03:14:35;5.80;;;3.45;;
25780;SDS011;13626;48.128;11.628;2022-07-17T03:17:03;4.28;;;3.30;;
25780;SDS011;13626;48.128;11.628;2022-07-17T03:19:30;4.15;;;2.95;;
25780;SDS011;13626;48.128;11.628;2022-07-17T03:21:57;4.95;;;3.40;;
25780;SDS011;13626;48.128;11.628;2022-07-17T03:24:24;4.07;;;3.33;;
25780;SDS011;13626;48.128;11.628;2022-07-17T03:26:52;4.75;;;3.22;;
25780;SDS011;13626;48.128;11.628;2022-07-17T03:29:19;5.10;;;3.10;;
25780;SDS011;13626;48.128;11.628;2022-07-17T03:31:46;4.05;;;2.90;;
25780;SDS011;13626;48.128;11.628;2022-07-17T03:34:14;7.03;;;3.22;;
25780;SDS011;13626;48.128;11.628;2022-07-17T03:36:41;4.40;;;3.35;;
25780;SDS011;13626;48.128;11.628;2022-07-17T03:39:09;5.47;;;3.13;;
25780;SDS011;13626;48.128;11.628;2022-07-17T03:41:36;5.97;;;3.67;;
25780;SDS011;13626;48.128;11.628;2022-07-17T03:44:03;3.22;;;2.75;;
25780;SDS011;13626;48.128;11.628;2022-07-17T03:46:31;3.58;;;2.80;;
25780;SDS011;13626;48.128;11.628;2022-07-17T03:48:58;4.45;;;3.40;;
25780;SDS011;13626;48.128;11.628;2022-07-17T03:51:26;8.95;;;3.58;;
25780;SDS011;13626;48.128;11.628;2022-07-17T03:53:53;6.00;;;3.40;;
25780;SDS011;13626;48.128;11.628;2022-07-17T03:56:21;3.65;;;3.10;;
25780;SDS011;13626;48.128;11.628;2022-07-17T03:58:48;5.57;;;2.80;;
25780;SDS011;13626;48.128;11.628;2022-07-17T04:01:16;4.97;;;3.55;;
25780;SDS011;13626;48.128;11.628;2022-07-17T04:03:43;3.55;;;3.03;;
25780;SDS011;13626;48.128;11.628;2022-07-17T04:06:10;4.85;;;3.05;;
25780;SDS011;13626;48.128;11.628;2022-07-17T04:08:38;5.32;;;3.00;;
25780;SDS011;13626;48.128;11.628;2022-07-17T04:11:05;5.43;;;3.13;;
25780;SDS011;13626;48.128;11.628;2022-07-17T04:13:35;3.25;;;2.53;;
25780;SDS011;13626;48.128;11.628;2022-07-17T04:16:03;3.08;;;2.55;;
25780;SDS011;13626;48.128;11.628;2022-07-17T04:18:32;5.03;;;2.70;;
25780;SDS011;13626;48.128;11.628;2022-07-17T04:21:00;4.63;;;2.80;;
25780;SDS011;13626;48.128;11.628;2022-07-17T04:23:28;3.50;;;2.55;;
25780;SDS011;13626;48.128;11.628;2022-07-17T04:25:55;5.75;;;3.00;;
25780;SDS011;13626;48.128;11.628;2022-07-17T04:28:23;3.00;;;2.65;;
25780;SDS011;13626;48.128;11.628;2022-07-17T04:30:50;3.08;;;2.80;;
25780;SDS011;13626;48.128;11.628;2022-07-17T04:33:17;3.63;;;3.03;;
25780;SDS011;13626;48.128;11.628;2022-07-17T04:35:45;4.72;;;2.90;;
25780;SDS011;13626;48.128;11.628;2022-07-17T04:38:12;5.63;;;3.00;;
25780;SDS011;13626;48.128;11.628;2022-07-17T04:40:39;3.05;;;2.75;;
25780;SDS011;13626;48.128;11.628;2022-07-17T04:43:07;5.32;;;3.00;;
25780;SDS011;13626;48.128;11.628;2022-07-17T04:45:34;3.63;;;2.90;;
25780;SDS011;13626;48.128;11.628;2022-07-17T04:48:01;4.25;;;2.80;;
25780;SDS011;13626;48.128;11.628;2022-07-17T04:50:29;3.72;;;3.33;;
25780;SDS011;13626;48.128;11.628;2022-07-17T04:52:56;3.72;;;3.33;;
25780;SDS011;13626;48.128;11.628;2022-07-17T04:55:23;4.55;;;2.95;;
25780;SDS011;13626;48.128;11.628;2022-07-17T04:57:51;4.78;;;3.40;;
25780;SDS011;13626;48.128;11.628;2022-07-17T05:00:18;3.33;;;3.00;;
25780;SDS011;13626;48.128;11.628;2022-07-17T05:02:46;5.65;;;3.40;;
25780;SDS011;13626;48.128;11.628;2022-07-17T05:05:13;4.00;;;3.40;;
25780;SDS011;13626;48.128;11.628;2022-07-17T05:07:40;3.50;;;2.70;;
25780;SDS011;13626;48.128;11.628;2022-07-17T05:10:08;5.63;;;3.40;;
25780;SDS011;13626;48.128;11.628;2022-07-17T05:12:35;3.35;;;2.97;;
25780;SDS011;13626;48.128;11.628;2022-07-17T05:15:03;6.07;;;3.30;;
25780;SDS011;13626;48.128;11.628;2022-07-17T05:17:30;4.53;;;2.97;;
25780;SDS011;13626;48.128;11.628;2022-07-17T05:19:58;3.58;;;2.83;;
25780;SDS011;13626;48.128;11.628;2022-07-17T05:22:25;4.28;;;3.25;;
25780;SDS011;13626;48.128;11.628;2022-07-17T05:24:52;4.13;;;3.10;;
25780;SDS011;13626;48.128;11.628;2022-07-17T05:27:19;6.15;;;3.45;;
25780;SDS011;13626;48.128;11.628;2022-07-17T05:29:48;6.03;;;3.58;;
25780;SDS011;13626;48.128;11.628;2022-07-17T05:32:15;5.03;;;3.20;;
25780;SDS011;13626;48.128;11.628;2022-07-17T05:34:42;3.65;;;3.03;;
25780;SDS011;13626;48.128;11.628;2022-07-17T05:37:09;4.55;;;3.20;;
25780;SDS011;13626;48.128;11.628;2022-07-17T05:39:37;4.07;;;3.30;;
25780;SDS011;13626;48.128;11.628;2022-07-17T05:42:05;5.15;;;3.38;;
25780;SDS011;13626;48.128;11.628;2022-07-17T05:44:33;4.32;;;3.15;;
25780;SDS011;13626;48.128;11.628;2022-07-17T05:47:00;5.45;;;3.40;;
25780;SDS011;13626;48.128;11.628;2022-07-17T05:49:27;6.03;;;3.60;;
25780;SDS011;13626;48.128;11.628;2022-07-17T05:51:55;5.60;;;3.40;;
25780;SDS011;13626;48.128;11.628;2022-07-17T05:54:22;4.53;;;3.63;;
25780;SDS011;13626;48.128;11.628;2022-07-17T05:56:49;6.15;;;3.45;;
25780;SDS011;13626;48.128;11.628;2022-07-17T05:59:17;3.65;;;3.03;;
25780;SDS011;13626;48.128;11.628;2022-07-17T06:01:44;4.97;;;3.50;;
25780;SDS011;13626;48.128;11.628;2022-07-17T06:04:11;4.07;;;3.30;;
25780;SDS011;13626;48.128;11.628;2022-07-17T06:06:38;6.70;;;3.38;;
25780;SDS011;13626;48.128;11.628;2022-07-17T06:09:06;4.03;;;2.95;;
25780;SDS011;13626;48.128;11.628;2022-07-17T06:11:33;4.03;;;2.88;;
25780;SDS011;13626;48.128;11.628;2022-07-17T06:14:03;5.88;;;2.38;;
25780;SDS011;13626;48.128;11.628;2022-07-17T06:16:30;2.63;;;2.38;;
25780;SDS011;13626;48.128;11.628;2022-07-17T06:18:57;4.40;;;2.33;;
25780;SDS011;13626;48.128;11.628;2022-07-17T06:21:24;3.55;;;2.17;;
25780;SDS011;13626;48.128;11.628;2022-07-17T06:23:52;3.40;;;2.50;;
25780;SDS011;13626;48.128;11.628;2022-07-17T06:26:19;6.53;;;2.90;;
25780;SDS011;13626;48.128;11.628;2022-07-17T06:28:47;4.47;;;2.80;;
25780;SDS011;13626;48.128;11.628;2022-07-17T06:31:14;3.15;;;2.40;;
25780;SDS011;13626;48.128;11.628;2022-07-17T06:33:42;3.65;;;2.53;;
25780;SDS011;13626;48.128;11.628;2022-07-17T06:36:09;5.32;;;3.05;;
25780;SDS011;13626;48.128;11.628;2022-07-17T06:38:36;5.22;;;2.75;;
25780;SDS011;13626;48.128;11.628;2022-07-17T06:41:04;5.45;;;2.85;;
25780;SDS011;13626;48.128;11.628;2022-07-17T06:43:31;5.07;;;2.72;;
25780;SDS011;13626;48.128;11.628;2022-07-17T06:45:58;5.57;;;2.78;;
25780;SDS011;13626;48.128;11.628;2022-07-17T06:48:25;4.00;;;2.58;;
25780;SDS011;13626;48.128;11.628;2022-07-17T06:50:53;5.47;;;2.78;;
25780;SDS011;13626;48.128;11.628;2022-07-17T06:53:20;3.42;;;2.47;;
25780;SDS011;13626;48.128;11.628;2022-07-17T06:55:47;2.72;;;2.33;;
25780;SDS011;13626;48.128;11.628;2022-07-17T06:58:14;3.03;;;2.47;;
25780;SDS011;13626;48.128;11.628;2022-07-17T07:00:41;3.13;;;2.78;;
25780;SDS011;13626;48.128;11.628;2022-07-17T07:03:09;4.85;;;2.55;;
25780;SDS011;13626;48.128;11.628;2022-07-17T07:05:36;3.70;;;2.63;;
25780;SDS011;13626;48.128;11.628;2022-07-17T07:08:03;4.47;;;2.67;;
25780;SDS011;13626;48.128;11.628;2022-07-17T07:10:31;4.03;;;2.60;;
25780;SDS011;13626;48.128;11.628;2022-07-17T07:12:58;4.35;;;2.20;;
25780;SDS011;13626;48.128;11.628;2022-07-17T07:15:25;3.22;;;2.10;;
25780;SDS011;13626;48.128;11.628;2022-07-17T07:17:52;4.80;;;2.40;;
25780;SDS011;13626;48.128;11.628;2022-07-17T07:20:20;8.65;;;2.40;;
25780;SDS011;13626;48.128;11.628;2022-07-17T07:22:47;4.22;;;2.10;;
25780;SDS011;13626;48.128;11.628;2022-07-17T07:25:14;4.00;;;2.20;;
25780;SDS011;13626;48.128;11.628;2022-07-17T07:27:41;3.05;;;2.13;;
25780;SDS011;13626;48.128;11.628;2022-07-17T07:30:09;2.67;;;2.13;;
25780;SDS011;13626;48.128;11.628;2022-07-17T07:32:39;3.50;;;2.20;;
25780;SDS011;13626;48.128;11.628;2022-07-17T07:35:07;3.90;;;2.08;;
25780;SDS011;13626;48.128;11.628;2022-07-17T07:37:35;5.75;;;2.50;;
25780;SDS011;13626;48.128;11.628;2022-07-17T07:40:03;2.75;;;2.03;;
25780;SDS011;13626;48.128;11.628;2022-07-17T07:42:31;4.20;;;2.15;;
25780;SDS011;13626;48.128;11.628;2022-07-17T07:44:58;2.83;;;2.25;;
25780;SDS011;13626;48.128;11.628;2022-07-17T07:47:25;3.83;;;1.90;;
25780;SDS011;13626;48.128;11.628;2022-07-17T07:49:53;4.22;;;2.03;;
25780;SDS011;13626;48.128;11.628;2022-07-17T07:52:20;2.42;;;2.10;;
25780;SDS011;13626;48.128;11.628;2022-07-17T07:54:47;2.25;;;2.05;;
25780;SDS011;13626;48.128;11.628;2022-07-17T07:57:14;2.17;;;1.73;;
25780;SDS011;13626;48.128;11.628;2022-07-17T07:59:42;1.92;;;1.70;;
25780;SDS011;13626;48.128;11.628;2022-07-17T08:02:09;2.25;;;1.80;;
25780;SDS011;13626;48.128;11.628;2022-07-17T08:04:37;1.67;;;1.55;;
25780;SDS011;13626;48.128;11.628;2022-07-17T08:07:04;3.10;;;1.77;;
25780;SDS011;13626;48.128;11.628;2022-07-17T08:09:32;3.97;;;1.50;;
25780;SDS011;13626;48.128;11.628;2022-07-17T08:11:59;1.65;;;1.55;;
25780;SDS011;13626;48.128;11.628;2022-07-17T08:14:46;4.22;;;1.50;;
25780;SDS011;13626;48.128;11.628;2022-07-17T08:17:13;1.80;;;1.70;;
25780;SDS011;13626;48.128;11.628;2022-07-17T08:19:40;3.17;;;1.80;;
25780;SDS011;13626;48.128;11.628;2022-07-17T08:22:08;2.70;;;1.60;;
25780;SDS011;13626;48.128;11.628;2022-07-17T08:24:35;1.70;;;1.60;;
25780;SDS011;13626;48.128;11.628;2022-07-17T08:27:02;1.85;;;1.75;;
25780;SDS011;13626;48.128;11.628;2022-07-17T08:29:30;2.67;;;1.70;;
25780;SDS011;13626;48.128;11.628;2022-07-17T08:32:17;2.20;;;1.60;;
25780;SDS011;13626;48.128;11.628;2022-07-17T08:34:45;1.95;;;1.75;;
25780;SDS011;13626;48.128;11.628;2022-07-17T08:37:13;3.63;;;1.60;;
25780;SDS011;13626;48.128;11.628;2022-07-17T08:39:40;1.60;;;1.50;;
25780;SDS011;13626;48.128;11.628;2022-07-17T08:42:13;3.00;;;1.60;;
25780;SDS011;13626;48.128;11.628;2022-07-17T08:44:42;3.33;;;1.67;;
25780;SDS011;13626;48.128;11.628;2022-07-17T08:47:10;1.60;;;1.50;;
25780;SDS011;13626;48.128;11.628;2022-07-17T08:49:40;5.47;;;1.60;;
25780;SDS011;13626;48.128;11.628;2022-07-17T08:52:10;3.28;;;1.73;;
25780;SDS011;13626;48.128;11.628;2022-07-17T08:54:38;3.33;;;1.65;;
25780;SDS011;13626;48.128;11.628;2022-07-17T08:57:05;2.38;;;1.88;;
25780;SDS011;13626;48.128;11.628;2022-07-17T08:59:33;4.10;;;1.70;;
25780;SDS011;13626;48.128;11.628;2022-07-17T09:02:00;3.60;;;1.92;;
25780;SDS011;13626;48.128;11.628;2022-07-17T09:04:27;2.47;;;1.90;;
25780;SDS011;13626;48.128;11.628;2022-07-17T09:06:58;3.58;;;1.98;;
25780;SDS011;13626;48.128;11.628;2022-07-17T09:09:28;2.67;;;1.80;;
25780;SDS011;13626;48.128;11.628;2022-07-17T09:11:56;3.20;;;2.03;;
25780;SDS011;13626;48.128;11.628;2022-07-17T09:14:35;5.00;;;2.28;;
25780;SDS011;13626;48.128;11.628;2022-07-17T09:17:03;3.03;;;2.00;;
25780;SDS011;13626;48.128;11.628;2022-07-17T09:19:35;2.03;;;1.92;;
25780;SDS011;13626;48.128;11.628;2022-07-17T09:24:46;5.95;;;2.78;;
25780;SDS011;13626;48.128;11.628;2022-07-17T09:27:16;2.13;;;2.00;;
25780;SDS011;13626;48.128;11.628;2022-07-17T09:29:55;2.25;;;2.03;;
25780;SDS011;13626;48.128;11.628;2022-07-17T09:32:25;2.42;;;2.22;;
25780;SDS011;13626;48.128;11.628;2022-07-17T09:34:53;2.78;;;2.58;;
25780;SDS011;13626;48.128;11.628;2022-07-17T09:37:22;4.05;;;2.28;;
25780;SDS011;13626;48.128;11.628;2022-07-17T09:39:50;2.50;;;2.20;;
25780;SDS011;13626;48.128;11.628;2022-07-17T09:42:22;3.75;;;2.30;;
25780;SDS011;13626;48.128;11.628;2022-07-17T09:45:08;5.55;;;2.53;;
25780;SDS011;13626;48.128;11.628;2022-07-17T09:47:37;3.05;;;2.30;;
25780;SDS011;13626;48.128;11.628;2022-07-17T09:50:06;3.05;;;2.50;;
25780;SDS011;13626;48.128;11.628;2022-07-17T09:52:34;2.45;;;2.22;;
25780;SDS011;13626;48.128;11.628;2022-07-17T09:55:02;4.22;;;2.60;;
25780;SDS011;13626;48.128;11.628;2022-07-17T09:57:49;5.70;;;2.70;;
25780;SDS011;13626;48.128;11.628;2022-07-17T10:00:20;3.50;;;2.35;;
25780;SDS011;13626;48.128;11.628;2022-07-17T10:02:49;4.22;;;2.38;;
25780;SDS011;13626;48.128;11.628;2022-07-17T10:05:17;2.25;;;2.05;;
25780;SDS011;13626;48.128;11.628;2022-07-17T10:07:45;2.40;;;2.20;;
25780;SDS011;13626;48.128;11.628;2022-07-17T10:10:13;4.40;;;2.28;;
25780;SDS011;13626;48.128;11.628;2022-07-17T10:12:42;2.90;;;2.42;;
25780;SDS011;13626;48.128;11.628;2022-07-17T10:15:10;2.92;;;2.30;;
25780;SDS011;13626;48.128;11.628;2022-07-17T10:17:37;2.50;;;2.13;;
25780;SDS011;13626;48.128;11.628;2022-07-17T10:20:11;2.80;;;2.60;;
25780;SDS011;13626;48.128;11.628;2022-07-17T10:22:41;3.30;;;2.40;;
25780;SDS011;13626;48.128;11.628;2022-07-17T10:25:12;2.33;;;2.10;;
25780;SDS011;13626;48.128;11.628;2022-07-17T10:27:45;3.05;;;2.25;;
25780;SDS011;13626;48.128;11.628;2022-07-17T10:30:12;2.78;;;2.13;;
25780;SDS011;13626;48.128;11.628;2022-07-17T10:32:50;2.25;;;2.05;;
25780;SDS011;13626;48.128;11.628;2022-07-17T10:35:18;4.88;;;2.30;;
25780;SDS011;13626;48.128;11.628;2022-07-17T10:37:49;4.20;;;2.10;;
25780;SDS011;13626;48.128;11.628;2022-07-17T10:45:30;6.43;;;2.22;;
25780;SDS011;13626;48.128;11.628;2022-07-17T10:48:06;2.97;;;2.00;;
25780;SDS011;13626;48.128;11.628;2022-07-17T10:53:15;2.58;;;2.38;;
25780;SDS011;13626;48.128;11.628;2022-07-17T10:55:51;3.80;;;2.33;;
25780;SDS011;13626;48.128;11.628;2022-07-17T10:58:23;4.00;;;2.10;;
25780;SDS011;13626;48.128;11.628;2022-07-17T11:00:57;4.38;;;2.15;;
25780;SDS011;13626;48.128;11.628;2022-07-17T11:05:52;3.40;;;2.22;;
25780;SDS011;13626;48.128;11.628;2022-07-17T11:08:19;4.53;;;2.33;;
25780;SDS011;13626;48.128;11.628;2022-07-17T11:10:46;2.85;;;2.17;;
25780;SDS011;13626;48.128;11.628;2022-07-17T11:13:15;2.47;;;2.20;;
25780;SDS011;13626;48.128;11.628;2022-07-17T11:15:46;2.38;;;2.17;;
25780;SDS011;13626;48.128;11.628;2022-07-17T11:18:18;3.40;;;2.17;;
25780;SDS011;13626;48.128;11.628;2022-07-17T11:20:55;4.28;;;2.00;;
25780;SDS011;13626;48.128;11.628;2022-07-17T11:23:24;2.15;;;1.90;;
25780;SDS011;13626;48.128;11.628;2022-07-17T11:28:29;3.30;;;1.90;;
25780;SDS011;13626;48.128;11.628;2022-07-17T11:30:56;2.30;;;1.98;;
25780;SDS011;13626;48.128;11.628;2022-07-17T11:33:24;2.17;;;1.95;;
25780;SDS011;13626;48.128;11.628;2022-07-17T11:35:51;3.30;;;2.13;;
25780;SDS011;13626;48.128;11.628;2022-07-17T11:38:27;3.55;;;2.50;;
25780;SDS011;13626;48.128;11.628;2022-07-17T11:40:54;3.53;;;2.33;;
25780;SDS011;13626;48.128;11.628;2022-07-17T11:43:27;3.60;;;2.15;;
25780;SDS011;13626;48.128;11.628;2022-07-17T11:45:54;4.28;;;2.10;;
25780;SDS011;13626;48.128;11.628;2022-07-17T11:48:21;3.30;;;2.05;;
25780;SDS011;13626;48.128;11.628;2022-07-17T11:50:53;3.10;;;2.10;;
25780;SDS011;13626;48.128;11.628;2022-07-17T11:53:30;2.22;;;1.92;;
25780;SDS011;13626;48.128;11.628;2022-07-17T11:55:57;3.88;;;2.20;;
25780;SDS011;13626;48.128;11.628;2022-07-17T11:58:25;2.67;;;2.08;;
25780;SDS011;13626;48.128;11.628;2022-07-17T12:01:02;3.15;;;2.17;;
25780;SDS011;13626;48.128;11.628;2022-07-17T12:03:29;2.20;;;1.92;;
25780;SDS011;13626;48.128;11.628;2022-07-17T12:05:57;3.45;;;2.20;;
25780;SDS011;13626;48.128;11.628;2022-07-17T12:08:25;2.67;;;2.08;;
25780;SDS011;13626;48.128;11.628;2022-07-17T12:11:02;2.30;;;2.00;;
25780;SDS011;13626;48.128;11.628;2022-07-17T12:13:40;2.33;;;1.75;;
25780;SDS011;13626;48.128;11.628;2022-07-17T12:16:22;2.92;;;2.22;;
25780;SDS011;13626;48.128;11.628;2022-07-17T12:18:56;4.50;;;2.10;;
25780;SDS011;13626;48.128;11.628;2022-07-17T12:21:24;4.60;;;1.90;;
25780;SDS011;13626;48.128;11.628;2022-07-17T12:23:56;2.50;;;1.98;;
25780;SDS011;13626;48.128;11.628;2022-07-17T12:26:24;2.25;;;2.05;;
25780;SDS011;13626;48.128;11.628;2022-07-17T12:28:52;1.70;;;1.60;;
25780;SDS011;13626;48.128;11.628;2022-07-17T12:33:54;2.72;;;2.08;;
25780;SDS011;13626;48.128;11.628;2022-07-17T12:36:22;5.32;;;2.20;;
25780;SDS011;13626;48.128;11.628;2022-07-17T12:38:49;3.33;;;2.10;;
25780;SDS011;13626;48.128;11.628;2022-07-17T12:41:16;2.65;;;1.80;;
25780;SDS011;13626;48.128;11.628;2022-07-17T12:43:44;2.53;;;2.00;;
25780;SDS011;13626;48.128;11.628;2022-07-17T12:46:11;3.42;;;2.17;;
25780;SDS011;13626;48.128;11.628;2022-07-17T12:48:42;3.03;;;2.05;;
25780;SDS011;13626;48.128;11.628;2022-07-17T12:51:10;3.10;;;2.45;;
25780;SDS011;13626;48.128;11.628;2022-07-17T12:53:39;3.60;;;2.03;;
25780;SDS011;13626;48.128;11.628;2022-07-17T12:56:07;1.92;;;1.73;;
25780;SDS011;13626;48.128;11.628;2022-07-17T12:58:35;4.72;;;2.13;;
25780;SDS011;13626;48.128;11.628;2022-07-17T13:01:03;2.55;;;2.00;;
25780;SDS011;13626;48.128;11.628;2022-07-17T13:03:31;3.70;;;2.30;;
25780;SDS011;13626;48.128;11.628;2022-07-17T13:05:59;2.42;;;1.85;;
25780;SDS011;13626;48.128;11.628;2022-07-17T13:08:27;3.67;;;2.10;;
25780;SDS011;13626;48.128;11.628;2022-07-17T13:10:54;2.22;;;2.03;;
25780;SDS011;13626;48.128;11.628;2022-07-17T13:13:22;2.22;;;2.10;;
25780;SDS011;13626;48.128;11.628;2022-07-17T13:15:49;1.58;;;1.48;;
25780;SDS011;13626;48.128;11.628;2022-07-17T13:18:16;2.20;;;1.70;;
25780;SDS011;13626;48.128;11.628;2022-07-17T13:20:44;2.08;;;1.90;;
25780;SDS011;13626;48.128;11.628;2022-07-17T13:23:12;2.10;;;1.90;;
25780;SDS011;13626;48.128;11.628;2022-07-17T13:25:39;2.65;;;2.00;;
25780;SDS011;13626;48.128;11.628;2022-07-17T13:28:07;3.95;;;1.88;;
25780;SDS011;13626;48.128;11.628;2022-07-17T13:30:34;2.22;;;2.00;;
25780;SDS011;13626;48.128;11.628;2022-07-17T13:33:02;2.60;;;2.00;;
25780;SDS011;13626;48.128;11.628;2022-07-17T13:35:29;2.10;;;1.90;;
25780;SDS011;13626;48.128;11.628;2022-07-17T13:37:56;2.53;;;1.95;;
25780;SDS011;13626;48.128;11.628;2022-07-17T13:40:26;2.10;;;2.00;;
25780;SDS011;13626;48.128;11.628;2022-07-17T13:42:54;2.42;;;1.80;;
25780;SDS011;13626;48.128;11.628;2022-07-17T13:45:22;2.03;;;1.83;;
25780;SDS011;13626;48.128;11.628;2022-07-17T13:47:50;3.38;;;1.80;;
25780;SDS011;13626;48.128;11.628;2022-07-17T13:50:17;1.88;;;1.77;;
25780;SDS011;13626;48.128;11.628;2022-07-17T13:52:45;2.25;;;1.98;;
25780;SDS011;13626;48.128;11.628;2022-07-17T13:55:14;3.05;;;2.03;;
25780;SDS011;13626;48.128;11.628;2022-07-17T13:58:01;3.30;;;2.20;;
25780;SDS011;13626;48.128;11.628;2022-07-17T14:00:29;1.85;;;1.50;;
25780;SDS011;13626;48.128;11.628;2022-07-17T14:02:56;2.53;;;2.20;;
25780;SDS011;13626;48.128;11.628;2022-07-17T14:05:24;2.50;;;2.30;;
25780;SDS011;13626;48.128;11.628;2022-07-17T14:07:51;2.30;;;2.10;;
25780;SDS011;13626;48.128;11.628;2022-07-17T14:10:18;4.45;;;1.85;;
25780;SDS011;13626;48.128;11.628;2022-07-17T14:12:45;2.13;;;1.92;;
25780;SDS011;13626;48.128;11.628;2022-07-17T14:15:13;5.78;;;1.88;;
25780;SDS011;13626;48.128;11.628;2022-07-17T14:17:40;5.25;;;2.00;;
25780;SDS011;13626;48.128;11.628;2022-07-17T14:20:08;2.55;;;1.88;;
25780;SDS011;13626;48.128;11.628;2022-07-17T14:22:36;2.10;;;1.80;;
25780;SDS011;13626;48.128;11.628;2022-07-17T14:25:03;3.25;;;2.10;;
25780;SDS011;13626;48.128;11.628;2022-07-17T14:27:30;3.13;;;2.00;;
25780;SDS011;13626;48.128;11.628;2022-07-17T14:29:58;2.67;;;2.10;;
25780;SDS011;13626;48.128;11.628;2022-07-17T14:32:25;3.75;;;1.90;;
25780;SDS011;13626;48.128;11.628;2022-07-17T14:34:52;3.92;;;1.85;;
25780;SDS011;13626;48.128;11.628;2022-07-17T14:37:20;2.15;;;1.95;;
25780;SDS011;13626;48.128;11.628;2022-07-17T14:39:48;2.15;;;1.90;;
25780;SDS011;13626;48.128;11.628;2022-07-17T14:42:16;7.45;;;2.08;;
25780;SDS011;13626;48.128;11.628;2022-07-17T14:44:43;3.17;;;1.83;;
25780;SDS011;13626;48.128;11.628;2022-07-17T14:47:11;4.13;;;2.13;;
25780;SDS011;13626;48.128;11.628;2022-07-17T14:49:38;2.85;;;2.08;;
25780;SDS011;13626;48.128;11.628;2022-07-17T14:52:05;4.25;;;1.90;;
25780;SDS011;13626;48.128;11.628;2022-07-17T14:54:32;1.85;;;1.75;;
25780;SDS011;13626;48.128;11.628;2022-07-17T14:57:00;2.42;;;2.22;;
25780;SDS011;13626;48.128;11.628;2022-07-17T14:59:27;2.28;;;1.70;;